sensor_id;sensor_type;location;lat;lon;timestamp;P1;durP1;ratioP1;P2;durP2;ratioP2
61025;SDS011;46911;32.650;-16.902;2023-07-31T15:56:42;4.43;;;1.23;;
61025;SDS011;46911;32.650;-16.902;2023-07-31T16:00:49;3.25;;;1.00;;
61025;SDS011;46911;32.650;-16.902;2023-07-31T16:02:53;6.80;;;1.35;;
61025;SDS011;46911;32.650;-16.902;2023-07-31T16:04:54;8.02;;;1.30;;
61025;SDS011;46911;32.650;-16.902;2023-07-31T16:06:57;4.30;;;1.60;;
61025;SDS011;46911;32.650;-16.902;2023-07-31T16:08:58;5.40;;;1.17;;
61025;SDS011;46911;32.650;-16.902;2023-07-31T16:10:59;2.55;;;1.25;;
61025;SDS011;46911;32.650;-16.902;2023-07-31T16:13:00;2.78;;;1.23;;
61025;SDS011;46911;32.650;-16.902;2023-07-31T16:15:04;3.90;;;1.33;;
61025;SDS011;46911;32.650;-16.902;2023-07-31T16:17:05;3.97;;;1.33;;
61025;SDS011;46911;32.650;-16.902;2023-07-31T16:19:06;3.63;;;1.20;;
61025;SDS011;46911;32.650;-16.902;2023-07-31T16:21:07;1.70;;;1.08;;
61025;SDS011;46911;32.650;-16.902;2023-07-31T16:23:10;4.55;;;1.20;;
61025;SDS011;46911;32.650;-16.902;2023-07-31T16:25:11;4.45;;;1.13;;
61025;SDS011;46911;32.650;-16.902;2023-07-31T16:27:12;6.85;;;1.50;;
61025;SDS011;46911;32.650;-16.902;2023-07-31T16:29:13;7.50;;;1.25;;
61025;SDS011;46911;32.650;-16.902;2023-07-31T16:31:14;4.20;;;1.35;;
61025;SDS011;46911;32.650;-16.902;2023-07-31T16:33:19;5.90;;;1.52;;
61025;SDS011;46911;32.650;-16.902;2023-07-31T16:35:20;3.22;;;1.13;;
61025;SDS011;46911;32.650;-16.902;2023-07-31T16:37:22;3.88;;;1.40;;
61025;SDS011;46911;32.650;-16.902;2023-07-31T16:39:23;4.38;;;1.20;;
61025;SDS011;46911;32.650;-16.902;2023-07-31T16:41:29;6.68;;;1.45;;
61025;SDS011;46911;32.650;-16.902;2023-07-31T16:43:30;4.65;;;1.10;;
61025;SDS011;46911;32.650;-16.902;2023-07-31T16:45:31;4.80;;;1.17;;
61025;SDS011;46911;32.650;-16.902;2023-07-31T16:47:32;4.35;;;1.27;;
61025;SDS011;46911;32.650;-16.902;2023-07-31T16:49:35;11.05;;;1.70;;
61025;SDS011;46911;32.650;-16.902;2023-07-31T16:51:36;2.78;;;1.33;;
61025;SDS011;46911;32.650;-16.902;2023-07-31T16:53:37;3.85;;;1.27;;
61025;SDS011;46911;32.650;-16.902;2023-07-31T16:55:41;2.97;;;1.00;;
61025;SDS011;46911;32.650;-16.902;2023-07-31T16:57:44;9.90;;;1.00;;
61025;SDS011;46911;32.650;-16.902;2023-07-31T16:59:45;2.78;;;1.15;;
61025;SDS011;46911;32.650;-16.902;2023-07-31T17:01:49;2.78;;;0.82;;
61025;SDS011;46911;32.650;-16.902;2023-07-31T17:03:50;4.35;;;0.88;;
61025;SDS011;46911;32.650;-16.902;2023-07-31T17:05:53;7.53;;;0.90;;
61025;SDS011;46911;32.650;-16.902;2023-07-31T17:07:56;4.50;;;1.67;;
61025;SDS011;46911;32.650;-16.902;2023-07-31T17:10:00;5.38;;;1.05;;
61025;SDS011;46911;32.650;-16.902;2023-07-31T17:12:01;4.90;;;1.35;;
61025;SDS011;46911;32.650;-16.902;2023-07-31T17:14:03;4.53;;;1.52;;
61025;SDS011;46911;32.650;-16.902;2023-07-31T17:16:06;2.38;;;0.88;;
61025;SDS011;46911;32.650;-16.902;2023-07-31T17:18:07;4.05;;;1.63;;
61025;SDS011;46911;32.650;-16.902;2023-07-31T17:20:13;9.18;;;2.55;;
61025;SDS011;46911;32.650;-16.902;2023-07-31T17:22:14;7.53;;;2.25;;
61025;SDS011;46911;32.650;-16.902;2023-07-31T17:24:15;7.20;;;2.00;;
61025;SDS011;46911;32.650;-16.902;2023-07-31T17:26:16;8.02;;;1.63;;
61025;SDS011;46911;32.650;-16.902;2023-07-31T17:28:17;9.13;;;1.70;;
61025;SDS011;46911;32.650;-16.902;2023-07-31T17:30:18;5.03;;;1.15;;
61025;SDS011;46911;32.650;-16.902;2023-07-31T17:32:21;8.95;;;2.83;;
61025;SDS011;46911;32.650;-16.902;2023-07-31T17:34:24;11.18;;;1.60;;
61025;SDS011;46911;32.650;-16.902;2023-07-31T17:36:25;3.42;;;1.33;;
61025;SDS011;46911;32.650;-16.902;2023-07-31T17:38:26;4.35;;;1.38;;
61025;SDS011;46911;32.650;-16.902;2023-07-31T17:40:27;4.60;;;1.33;;
61025;SDS011;46911;32.650;-16.902;2023-07-31T17:42:30;6.68;;;1.80;;
61025;SDS011;46911;32.650;-16.902;2023-07-31T17:44:31;3.90;;;1.50;;
61025;SDS011;46911;32.650;-16.902;2023-07-31T17:46:34;4.82;;;1.95;;
61025;SDS011;46911;32.650;-16.902;2023-07-31T17:48:35;5.63;;;2.15;;
61025;SDS011;46911;32.650;-16.902;2023-07-31T17:50:39;4.45;;;1.48;;
61025;SDS011;46911;32.650;-16.902;2023-07-31T17:52:42;14.98;;;2.47;;
61025;SDS011;46911;32.650;-16.902;2023-07-31T17:54:43;4.32;;;1.50;;
61025;SDS011;46911;32.650;-16.902;2023-07-31T17:56:44;4.50;;;1.40;;
61025;SDS011;46911;32.650;-16.902;2023-07-31T17:58:45;6.38;;;1.63;;
61025;SDS011;46911;32.650;-16.902;2023-07-31T18:00:46;9.18;;;2.60;;
61025;SDS011;46911;32.650;-16.902;2023-07-31T18:02:47;3.55;;;1.30;;
61025;SDS011;46911;32.650;-16.902;2023-07-31T18:04:52;6.78;;;1.80;;
61025;SDS011;46911;32.650;-16.902;2023-07-31T18:06:53;4.60;;;1.35;;
61025;SDS011;46911;32.650;-16.902;2023-07-31T18:08:54;3.38;;;1.40;;
61025;SDS011;46911;32.650;-16.902;2023-07-31T18:10:55;4.82;;;1.42;;
61025;SDS011;46911;32.650;-16.902;2023-07-31T18:12:58;6.13;;;1.63;;
61025;SDS011;46911;32.650;-16.902;2023-07-31T18:15:02;5.07;;;1.60;;
61025;SDS011;46911;32.650;-16.902;2023-07-31T18:17:05;4.28;;;1.30;;
61025;SDS011;46911;32.650;-16.902;2023-07-31T18:19:09;10.15;;;4.10;;
61025;SDS011;46911;32.650;-16.902;2023-07-31T18:21:10;8.15;;;2.58;;
61025;SDS011;46911;32.650;-16.902;2023-07-31T18:23:11;8.93;;;2.67;;
61025;SDS011;46911;32.650;-16.902;2023-07-31T18:25:12;7.13;;;3.53;;
61025;SDS011;46911;32.650;-16.902;2023-07-31T18:27:13;6.47;;;2.28;;
61025;SDS011;46911;32.650;-16.902;2023-07-31T18:29:14;11.32;;;3.70;;
61025;SDS011;46911;32.650;-16.902;2023-07-31T18:31:15;9.63;;;2.53;;
61025;SDS011;46911;32.650;-16.902;2023-07-31T18:33:19;12.60;;;2.28;;
61025;SDS011;46911;32.650;-16.902;2023-07-31T18:35:22;11.07;;;2.45;;
61025;SDS011;46911;32.650;-16.902;2023-07-31T18:37:25;7.78;;;1.90;;
61025;SDS011;46911;32.650;-16.902;2023-07-31T18:39:28;9.45;;;2.40;;
61025;SDS011;46911;32.650;-16.902;2023-07-31T18:41:29;13.55;;;2.38;;
61025;SDS011;46911;32.650;-16.902;2023-07-31T18:43:30;8.13;;;2.58;;
61025;SDS011;46911;32.650;-16.902;2023-07-31T18:45:33;6.60;;;2.15;;
61025;SDS011;46911;32.650;-16.902;2023-07-31T18:47:34;13.10;;;3.03;;
61025;SDS011;46911;32.650;-16.902;2023-07-31T18:49:38;12.20;;;2.70;;
61025;SDS011;46911;32.650;-16.902;2023-07-31T18:51:39;18.33;;;3.55;;
61025;SDS011;46911;32.650;-16.902;2023-07-31T18:53:40;13.50;;;3.50;;
61025;SDS011;46911;32.650;-16.902;2023-07-31T18:55:41;9.75;;;3.10;;
61025;SDS011;46911;32.650;-16.902;2023-07-31T18:57:43;12.43;;;4.28;;
61025;SDS011;46911;32.650;-16.902;2023-07-31T18:59:45;9.60;;;2.17;;
61025;SDS011;46911;32.650;-16.902;2023-07-31T19:01:48;10.55;;;2.90;;
61025;SDS011;46911;32.650;-16.902;2023-07-31T19:03:49;7.22;;;2.75;;
61025;SDS011;46911;32.650;-16.902;2023-07-31T19:05:50;13.90;;;2.50;;
61025;SDS011;46911;32.650;-16.902;2023-07-31T19:07:51;10.88;;;3.00;;
61025;SDS011;46911;32.650;-16.902;2023-07-31T19:09:52;9.02;;;3.03;;
61025;SDS011;46911;32.650;-16.902;2023-07-31T19:11:53;9.73;;;2.67;;
61025;SDS011;46911;32.650;-16.902;2023-07-31T19:13:54;13.73;;;3.60;;
61025;SDS011;46911;32.650;-16.902;2023-07-31T19:15:59;10.77;;;3.13;;
61025;SDS011;46911;32.650;-16.902;2023-07-31T19:18:01;10.45;;;2.83;;
61025;SDS011;46911;32.650;-16.902;2023-07-31T19:20:09;9.85;;;3.30;;
61025;SDS011;46911;32.650;-16.902;2023-07-31T19:22:11;8.13;;;2.88;;
61025;SDS011;46911;32.650;-16.902;2023-07-31T19:24:11;6.75;;;2.22;;
61025;SDS011;46911;32.650;-16.902;2023-07-31T19:26:12;11.35;;;3.10;;
61025;SDS011;46911;32.650;-16.902;2023-07-31T19:28:14;8.65;;;2.75;;
61025;SDS011;46911;32.650;-16.902;2023-07-31T19:30:15;10.32;;;2.83;;
61025;SDS011;46911;32.650;-16.902;2023-07-31T19:32:18;9.82;;;2.78;;
61025;SDS011;46911;32.650;-16.902;2023-07-31T19:34:19;12.70;;;3.22;;
61025;SDS011;46911;32.650;-16.902;2023-07-31T19:36:20;10.52;;;3.55;;
61025;SDS011;46911;32.650;-16.902;2023-07-31T19:38:23;7.15;;;2.42;;
61025;SDS011;46911;32.650;-16.902;2023-07-31T19:40:24;10.80;;;2.38;;
61025;SDS011;46911;32.650;-16.902;2023-07-31T19:42:29;10.75;;;2.80;;
61025;SDS011;46911;32.650;-16.902;2023-07-31T19:44:32;9.55;;;3.92;;
61025;SDS011;46911;32.650;-16.902;2023-07-31T19:46:36;15.93;;;3.15;;
61025;SDS011;46911;32.650;-16.902;2023-07-31T19:48:37;16.85;;;4.38;;
61025;SDS011;46911;32.650;-16.902;2023-07-31T19:50:42;8.90;;;3.10;;
61025;SDS011;46911;32.650;-16.902;2023-07-31T19:52:42;12.00;;;4.07;;
61025;SDS011;46911;32.650;-16.902;2023-07-31T19:54:43;9.93;;;3.20;;
61025;SDS011;46911;32.650;-16.902;2023-07-31T19:56:44;9.30;;;3.88;;
61025;SDS011;46911;32.650;-16.902;2023-07-31T19:58:45;10.70;;;3.67;;
61025;SDS011;46911;32.650;-16.902;2023-07-31T20:00:46;7.97;;;3.10;;
61025;SDS011;46911;32.650;-16.902;2023-07-31T20:02:49;10.07;;;3.20;;
61025;SDS011;46911;32.650;-16.902;2023-07-31T20:04:50;10.82;;;3.25;;
61025;SDS011;46911;32.650;-16.902;2023-07-31T20:06:51;10.60;;;2.80;;
61025;SDS011;46911;32.650;-16.902;2023-07-31T20:08:52;15.48;;;2.72;;
61025;SDS011;46911;32.650;-16.902;2023-07-31T20:10:53;10.82;;;2.90;;
61025;SDS011;46911;32.650;-16.902;2023-07-31T20:13:01;8.25;;;2.85;;
61025;SDS011;46911;32.650;-16.902;2023-07-31T20:15:05;11.23;;;3.35;;
61025;SDS011;46911;32.650;-16.902;2023-07-31T20:17:08;14.38;;;2.80;;
61025;SDS011;46911;32.650;-16.902;2023-07-31T20:19:09;7.95;;;2.92;;
61025;SDS011;46911;32.650;-16.902;2023-07-31T20:21:10;9.15;;;3.30;;
61025;SDS011;46911;32.650;-16.902;2023-07-31T20:23:14;11.57;;;2.92;;
61025;SDS011;46911;32.650;-16.902;2023-07-31T20:25:17;14.20;;;4.05;;
61025;SDS011;46911;32.650;-16.902;2023-07-31T20:27:19;14.30;;;4.78;;
61025;SDS011;46911;32.650;-16.902;2023-07-31T20:29:24;10.32;;;3.70;;
61025;SDS011;46911;32.650;-16.902;2023-07-31T20:31:28;11.13;;;2.60;;
61025;SDS011;46911;32.650;-16.902;2023-07-31T20:33:31;11.65;;;3.15;;
61025;SDS011;46911;32.650;-16.902;2023-07-31T20:35:37;10.65;;;4.78;;
61025;SDS011;46911;32.650;-16.902;2023-07-31T20:37:38;15.30;;;4.50;;
61025;SDS011;46911;32.650;-16.902;2023-07-31T20:39:39;11.27;;;3.08;;
61025;SDS011;46911;32.650;-16.902;2023-07-31T20:41:40;9.00;;;3.20;;
61025;SDS011;46911;32.650;-16.902;2023-07-31T20:43:42;10.25;;;2.83;;
61025;SDS011;46911;32.650;-16.902;2023-07-31T20:45:48;8.13;;;3.22;;
61025;SDS011;46911;32.650;-16.902;2023-07-31T20:47:51;7.57;;;3.10;;
61025;SDS011;46911;32.650;-16.902;2023-07-31T20:49:55;11.85;;;2.75;;
61025;SDS011;46911;32.650;-16.902;2023-07-31T20:51:56;13.68;;;4.60;;
61025;SDS011;46911;32.650;-16.902;2023-07-31T20:53:59;17.15;;;3.78;;
61025;SDS011;46911;32.650;-16.902;2023-07-31T20:56:00;9.52;;;4.50;;
61025;SDS011;46911;32.650;-16.902;2023-07-31T20:58:05;14.10;;;5.05;;
61025;SDS011;46911;32.650;-16.902;2023-07-31T21:00:06;9.52;;;3.10;;
61025;SDS011;46911;32.650;-16.902;2023-07-31T21:02:08;16.25;;;4.45;;
61025;SDS011;46911;32.650;-16.902;2023-07-31T21:04:09;11.70;;;5.10;;
61025;SDS011;46911;32.650;-16.902;2023-07-31T21:06:10;10.82;;;3.00;;
61025;SDS011;46911;32.650;-16.902;2023-07-31T21:08:16;7.35;;;2.70;;
61025;SDS011;46911;32.650;-16.902;2023-07-31T21:10:17;11.57;;;3.08;;
61025;SDS011;46911;32.650;-16.902;2023-07-31T21:12:18;7.80;;;3.08;;
61025;SDS011;46911;32.650;-16.902;2023-07-31T21:14:19;16.70;;;3.35;;
61025;SDS011;46911;32.650;-16.902;2023-07-31T21:16:20;8.85;;;2.47;;
61025;SDS011;46911;32.650;-16.902;2023-07-31T21:18:21;10.10;;;2.35;;
61025;SDS011;46911;32.650;-16.902;2023-07-31T21:20:25;11.85;;;2.60;;
61025;SDS011;46911;32.650;-16.902;2023-07-31T21:22:30;8.70;;;2.47;;
61025;SDS011;46911;32.650;-16.902;2023-07-31T21:24:37;8.88;;;2.58;;
61025;SDS011;46911;32.650;-16.902;2023-07-31T21:26:38;6.45;;;2.30;;
61025;SDS011;46911;32.650;-16.902;2023-07-31T21:28:39;11.23;;;2.58;;
61025;SDS011;46911;32.650;-16.902;2023-07-31T21:30:40;17.05;;;2.65;;
61025;SDS011;46911;32.650;-16.902;2023-07-31T21:32:44;8.48;;;2.38;;
61025;SDS011;46911;32.650;-16.902;2023-07-31T21:34:47;13.88;;;3.22;;
61025;SDS011;46911;32.650;-16.902;2023-07-31T21:36:48;10.45;;;2.53;;
61025;SDS011;46911;32.650;-16.902;2023-07-31T21:38:49;8.70;;;3.38;;
61025;SDS011;46911;32.650;-16.902;2023-07-31T21:40:50;8.30;;;3.17;;
61025;SDS011;46911;32.650;-16.902;2023-07-31T21:42:51;13.77;;;4.53;;
61025;SDS011;46911;32.650;-16.902;2023-07-31T21:44:54;10.65;;;4.65;;
61025;SDS011;46911;32.650;-16.902;2023-07-31T21:46:59;12.25;;;3.42;;
61025;SDS011;46911;32.650;-16.902;2023-07-31T21:49:00;11.45;;;4.38;;
61025;SDS011;46911;32.650;-16.902;2023-07-31T21:51:01;11.98;;;3.58;;
61025;SDS011;46911;32.650;-16.902;2023-07-31T21:53:02;6.90;;;2.85;;
61025;SDS011;46911;32.650;-16.902;2023-07-31T21:55:03;7.90;;;2.83;;
61025;SDS011;46911;32.650;-16.902;2023-07-31T21:57:07;15.25;;;3.65;;
61025;SDS011;46911;32.650;-16.902;2023-07-31T21:59:08;8.40;;;3.15;;
61025;SDS011;46911;32.650;-16.902;2023-07-31T22:01:11;14.23;;;4.65;;
61025;SDS011;46911;32.650;-16.902;2023-07-31T22:03:12;7.80;;;4.10;;
61025;SDS011;46911;32.650;-16.902;2023-07-31T22:05:15;9.27;;;4.60;;
61025;SDS011;46911;32.650;-16.902;2023-07-31T22:07:16;9.68;;;4.93;;
61025;SDS011;46911;32.650;-16.902;2023-07-31T22:09:21;7.78;;;4.93;;
61025;SDS011;46911;32.650;-16.902;2023-07-31T22:11:22;9.93;;;4.57;;
61025;SDS011;46911;32.650;-16.902;2023-07-31T22:13:23;9.00;;;5.28;;
61025;SDS011;46911;32.650;-16.902;2023-07-31T22:15:24;9.57;;;4.93;;
61025;SDS011;46911;32.650;-16.902;2023-07-31T22:17:25;9.70;;;5.05;;
61025;SDS011;46911;32.650;-16.902;2023-07-31T22:19:26;8.82;;;4.65;;
61025;SDS011;46911;32.650;-16.902;2023-07-31T22:21:27;12.45;;;5.15;;
61025;SDS011;46911;32.650;-16.902;2023-07-31T22:23:28;8.20;;;4.80;;
61025;SDS011;46911;32.650;-16.902;2023-07-31T22:25:29;10.90;;;5.18;;
61025;SDS011;46911;32.650;-16.902;2023-07-31T22:27:32;13.35;;;5.22;;
61025;SDS011;46911;32.650;-16.902;2023-07-31T22:29:35;7.25;;;4.47;;
61025;SDS011;46911;32.650;-16.902;2023-07-31T22:31:38;7.88;;;4.97;;
61025;SDS011;46911;32.650;-16.902;2023-07-31T22:33:42;8.15;;;4.60;;
61025;SDS011;46911;32.650;-16.902;2023-07-31T22:35:43;5.63;;;3.88;;
61025;SDS011;46911;32.650;-16.902;2023-07-31T22:37:46;10.68;;;4.25;;
61025;SDS011;46911;32.650;-16.902;2023-07-31T22:39:47;10.48;;;3.65;;
61025;SDS011;46911;32.650;-16.902;2023-07-31T22:41:50;7.97;;;4.05;;
61025;SDS011;46911;32.650;-16.902;2023-07-31T22:43:51;6.57;;;3.72;;
61025;SDS011;46911;32.650;-16.902;2023-07-31T22:45:52;5.57;;;3.08;;
61025;SDS011;46911;32.650;-16.902;2023-07-31T22:47:53;5.40;;;3.72;;
61025;SDS011;46911;32.650;-16.902;2023-07-31T22:49:54;7.32;;;3.42;;
61025;SDS011;46911;32.650;-16.902;2023-07-31T22:51:55;5.20;;;3.20;;
61025;SDS011;46911;32.650;-16.902;2023-07-31T22:53:56;6.00;;;3.20;;
61025;SDS011;46911;32.650;-16.902;2023-07-31T22:56:03;7.95;;;3.67;;
61025;SDS011;46911;32.650;-16.902;2023-07-31T22:58:09;4.95;;;3.45;;
61025;SDS011;46911;32.650;-16.902;2023-07-31T23:00:12;5.18;;;3.90;;
61025;SDS011;46911;32.650;-16.902;2023-07-31T23:02:14;8.30;;;4.28;;
61025;SDS011;46911;32.650;-16.902;2023-07-31T23:04:15;10.13;;;3.92;;
61025;SDS011;46911;32.650;-16.902;2023-07-31T23:06:20;9.27;;;4.25;;
61025;SDS011;46911;32.650;-16.902;2023-07-31T23:08:21;8.82;;;3.75;;
61025;SDS011;46911;32.650;-16.902;2023-07-31T23:10:28;10.93;;;4.38;;
61025;SDS011;46911;32.650;-16.902;2023-07-31T23:12:31;5.70;;;3.47;;
61025;SDS011;46911;32.650;-16.902;2023-07-31T23:14:35;7.45;;;3.75;;
61025;SDS011;46911;32.650;-16.902;2023-07-31T23:16:35;8.70;;;4.03;;
61025;SDS011;46911;32.650;-16.902;2023-07-31T23:18:41;6.38;;;3.40;;
61025;SDS011;46911;32.650;-16.902;2023-07-31T23:20:51;6.00;;;3.85;;
61025;SDS011;46911;32.650;-16.902;2023-07-31T23:22:53;7.82;;;3.92;;
61025;SDS011;46911;32.650;-16.902;2023-07-31T23:24:54;10.20;;;3.88;;
61025;SDS011;46911;32.650;-16.902;2023-07-31T23:26:57;7.00;;;3.70;;
61025;SDS011;46911;32.650;-16.902;2023-07-31T23:28:58;7.60;;;3.65;;
61025;SDS011;46911;32.650;-16.902;2023-07-31T23:31:04;15.15;;;3.95;;
61025;SDS011;46911;32.650;-16.902;2023-07-31T23:33:07;6.63;;;3.35;;
61025;SDS011;46911;32.650;-16.902;2023-07-31T23:35:08;9.25;;;3.60;;
61025;SDS011;46911;32.650;-16.902;2023-07-31T23:37:12;6.18;;;3.88;;
61025;SDS011;46911;32.650;-16.902;2023-07-31T23:39:16;10.98;;;3.83;;
61025;SDS011;46911;32.650;-16.902;2023-07-31T23:41:22;7.65;;;3.72;;
61025;SDS011;46911;32.650;-16.902;2023-07-31T23:43:25;6.40;;;3.35;;
61025;SDS011;46911;32.650;-16.902;2023-07-31T23:45:28;10.13;;;4.18;;
61025;SDS011;46911;32.650;-16.902;2023-07-31T23:47:32;6.95;;;4.57;;
61025;SDS011;46911;32.650;-16.902;2023-07-31T23:49:35;7.28;;;3.83;;
61025;SDS011;46911;32.650;-16.902;2023-07-31T23:51:36;9.90;;;4.00;;
61025;SDS011;46911;32.650;-16.902;2023-07-31T23:53:42;11.88;;;4.43;;
61025;SDS011;46911;32.650;-16.902;2023-07-31T23:55:46;5.45;;;3.45;;
61025;SDS011;46911;32.650;-16.902;2023-07-31T23:57:47;12.02;;;4.18;;
61025;SDS011;46911;32.650;-16.902;2023-07-31T23:59:48;8.63;;;3.97;;
